Time;durP1;ratioP1;P1;durP2;ratioP2;P2;SDS_P1;SDS_P2;PMS_P1;PMS_P2;Temp;Humidity;BMP_temperature;BMP_pressure;BME280_temperature;BME280_humidity;BME280_pressure;Samples;Min_cycle;Max_cycle;Signal;HPM_P1;HPM_P2
2021/12/31 00:02:20;;;;;;;25.85;5.60;;;6.60;99.90;;;;;;6209188;23;20631;-67
2021/12/31 00:04:51;;;;;;;6.93;3.30;;;6.60;99.90;;;;;;6208235;23;20189;-69
2021/12/31 00:07:24;;;;;;;4.65;2.95;;;6.60;99.90;;;;;;6206154;23;20212;-68
2021/12/31 00:10:00;;;;;;;6.32;3.47;;;6.50;99.90;;;;;;6205049;23;20304;-70
2021/12/31 00:12:31;;;;;;;5.30;3.13;;;6.50;99.90;;;;;;6210318;23;20487;-69
2021/12/31 00:15:02;;;;;;;5.00;2.80;;;6.60;99.90;;;;;;6203264;23;20182;-69
2021/12/31 00:17:33;;;;;;;5.15;2.90;;;6.60;99.90;;;;;;6205608;23;20190;-68
2021/12/31 00:20:08;;;;;;;3.97;3.10;;;6.60;99.90;;;;;;6202654;23;20694;-69
2021/12/31 00:25:42;;;;;;;4.65;2.80;;;6.50;99.90;;;;;;5100123;27;20685;-67
2021/12/31 00:28:14;;;;;;;5.50;3.10;;;6.40;99.90;;;;;;5099942;28;20242;-68
2021/12/31 00:30:45;;;;;;;4.85;2.78;;;6.40;99.90;;;;;;5083428;28;20674;-70
2021/12/31 00:33:15;;;;;;;5.00;3.47;;;6.40;99.90;;;;;;5081934;28;20212;-66
2021/12/31 00:35:46;;;;;;;2.75;2.50;;;6.40;99.90;;;;;;5086078;28;20209;-64
2021/12/31 00:38:18;;;;;;;6.55;2.85;;;6.40;99.90;;;;;;5079730;28;20228;-71
2021/12/31 00:40:50;;;;;;;6.00;3.30;;;6.30;99.90;;;;;;5087526;28;20209;-66
2021/12/31 00:43:21;;;;;;;4.32;2.90;;;6.30;99.90;;;;;;5083502;28;20216;-67
2021/12/31 00:45:52;;;;;;;4.80;3.67;;;6.40;99.90;;;;;;5080070;28;20211;-68
2021/12/31 00:48:23;;;;;;;7.47;3.90;;;6.40;99.90;;;;;;5081070;28;20608;-66
2021/12/31 00:50:54;;;;;;;6.88;3.20;;;6.30;99.90;;;;;;5083338;28;20249;-68
2021/12/31 00:53:25;;;;;;;5.32;3.30;;;6.30;99.90;;;;;;5080404;28;20219;-67
2021/12/31 00:55:57;;;;;;;2.90;2.47;;;6.30;99.90;;;;;;5089845;28;20679;-69
2021/12/31 00:58:30;;;;;;;3.97;2.83;;;6.30;99.90;;;;;;5089608;28;20250;-70
2021/12/31 01:01:01;;;;;;;6.22;2.80;;;6.30;99.90;;;;;;5083479;28;20216;-70
2021/12/31 01:03:32;;;;;;;6.40;2.40;;;6.30;99.90;;;;;;5078803;28;20336;-67
2021/12/31 01:06:03;;;;;;;4.22;2.53;;;6.20;99.90;;;;;;5070077;28;20216;-69
2021/12/31 01:08:34;;;;;;;5.75;2.80;;;6.10;99.90;;;;;;5085439;28;20219;-70
2021/12/31 01:11:06;;;;;;;4.63;2.58;;;6.10;99.90;;;;;;5081858;28;20223;-72
2021/12/31 01:13:50;;;;;;;6.03;2.83;;;6.10;99.90;;;;;;5085671;28;20219;-70
2021/12/31 01:16:22;;;;;;;4.43;2.78;;;6.10;99.90;;;;;;5081503;28;20208;-70
2021/12/31 01:21:40;;;;;;;5.03;2.40;;;6.30;99.90;;;;;;5082454;28;20623;-69
2021/12/31 01:24:11;;;;;;;3.58;2.17;;;6.30;99.90;;;;;;5084959;28;20319;-70
2021/12/31 01:26:44;;;;;;;4.90;2.58;;;6.20;99.90;;;;;;5086418;28;20232;-69
2021/12/31 01:29:15;;;;;;;4.43;2.40;;;6.10;99.90;;;;;;5085215;28;20316;-71
2021/12/31 01:31:45;;;;;;;5.03;2.60;;;6.10;99.90;;;;;;5080571;28;20216;-70
2021/12/31 01:34:16;;;;;;;7.78;3.95;;;6.20;99.90;;;;;;5081680;28;20209;-69
2021/12/31 01:36:47;;;;;;;5.35;2.60;;;6.10;99.90;;;;;;5071205;28;20221;-72
2021/12/31 01:39:18;;;;;;;5.30;2.72;;;6.10;99.90;;;;;;5072069;28;20221;-66
2021/12/31 01:41:50;;;;;;;6.05;4.35;;;6.00;99.90;;;;;;5069241;28;20209;-65
2021/12/31 01:44:23;;;;;;;6.57;3.33;;;5.90;99.90;;;;;;5068289;28;20682;-65
2021/12/31 01:46:58;;;;;;;3.58;3.28;;;5.90;99.90;;;;;;5071739;28;20225;-65
2021/12/31 01:49:35;;;;;;;7.50;4.78;;;5.80;99.90;;;;;;5063772;28;20221;-70
2021/12/31 01:52:06;;;;;;;8.95;3.00;;;6.00;99.90;;;;;;5068441;28;20612;-64
2021/12/31 01:54:38;;;;;;;5.45;3.45;;;6.00;99.90;;;;;;5069891;28;20638;-64
2021/12/31 01:57:12;;;;;;;5.18;2.92;;;6.00;99.90;;;;;;5070027;28;20209;-66
2021/12/31 01:59:44;;;;;;;3.88;3.08;;;5.90;99.90;;;;;;5069554;28;20228;-66
2021/12/31 02:02:15;;;;;;;5.18;2.90;;;5.90;99.90;;;;;;5068609;28;20563;-64
2021/12/31 02:04:45;;;;;;;4.90;3.03;;;6.00;99.90;;;;;;5068656;28;20552;-64
2021/12/31 02:07:16;;;;;;;4.35;2.97;;;6.00;99.90;;;;;;5066435;28;20303;-65
2021/12/31 02:09:50;;;;;;;6.32;3.35;;;5.90;99.90;;;;;;5068374;28;20209;-66
2021/12/31 02:12:23;;;;;;;4.13;2.92;;;6.00;99.90;;;;;;5069335;28;20213;-65
2021/12/31 02:14:54;;;;;;;4.80;3.33;;;5.90;99.90;;;;;;5069372;28;20257;-65
2021/12/31 02:17:25;;;;;;;3.20;2.92;;;5.90;99.90;;;;;;5069305;28;20224;-64
2021/12/31 02:20:00;;;;;;;5.20;2.95;;;5.90;99.90;;;;;;5066684;28;20216;-64
2021/12/31 02:22:31;;;;;;;4.88;2.95;;;5.90;99.90;;;;;;5069710;28;20213;-67
2021/12/31 02:25:02;;;;;;;4.75;3.33;;;5.80;99.90;;;;;;5068835;28;20294;-65
2021/12/31 02:27:36;;;;;;;6.00;3.70;;;5.80;99.90;;;;;;5069180;28;20215;-65
2021/12/31 02:30:10;;;;;;;5.50;4.20;;;5.80;99.90;;;;;;5067535;28;20212;-64
2021/12/31 02:32:41;;;;;;;7.35;4.22;;;5.80;99.90;;;;;;5069081;28;20299;-70
2021/12/31 02:35:14;;;;;;;5.35;3.83;;;5.80;99.90;;;;;;5070239;28;20212;-64
2021/12/31 02:37:45;;;;;;;6.35;3.97;;;5.90;99.90;;;;;;5057994;28;20277;-64
2021/12/31 02:40:18;;;;;;;6.75;5.10;;;5.80;99.90;;;;;;5062080;28;20217;-73
2021/12/31 02:42:49;;;;;;;7.45;5.13;;;5.80;99.90;;;;;;5058458;28;20572;-67
2021/12/31 02:45:27;;;;;;;8.57;6.35;;;5.80;99.90;;;;;;5066050;28;20282;-68
2021/12/31 02:48:00;;;;;;;6.22;5.03;;;5.80;99.90;;;;;;5077685;28;20213;-70
2021/12/31 02:50:35;;;;;;;8.60;6.13;;;5.70;99.90;;;;;;5064728;28;20580;-67
2021/12/31 02:53:08;;;;;;;7.28;5.40;;;5.70;99.90;;;;;;5078976;28;20694;-68
2021/12/31 02:55:40;;;;;;;9.45;7.28;;;5.70;99.90;;;;;;5068566;28;20213;-75
2021/12/31 02:58:11;;;;;;;7.72;6.43;;;5.70;99.90;;;;;;5081489;28;20219;-68
2021/12/31 03:00:44;;;;;;;10.50;5.80;;;5.70;99.90;;;;;;5072905;28;20220;-68
2021/12/31 03:03:16;;;;;;;10.35;5.72;;;5.70;99.90;;;;;;5067067;28;20220;-68
2021/12/31 03:05:50;;;;;;;9.45;5.70;;;5.70;99.90;;;;;;5068485;28;20229;-69
2021/12/31 03:08:22;;;;;;;6.53;5.75;;;5.70;99.90;;;;;;5074529;28;20221;-71
2021/12/31 03:10:55;;;;;;;7.72;6.93;;;5.70;99.90;;;;;;5066179;28;20224;-67
2021/12/31 03:13:26;;;;;;;12.27;7.53;;;5.80;99.90;;;;;;5061973;28;20217;-71
2021/12/31 03:15:59;;;;;;;8.80;6.43;;;5.90;99.90;;;;;;5067728;28;20571;-65
2021/12/31 03:18:30;;;;;;;9.68;7.25;;;5.90;99.90;;;;;;5066617;28;20213;-66
2021/12/31 03:21:08;;;;;;;12.00;7.20;;;5.80;99.90;;;;;;5076428;28;20213;-70
2021/12/31 03:23:39;;;;;;;7.47;6.70;;;5.80;99.90;;;;;;5073117;28;20729;-70
2021/12/31 03:26:09;;;;;;;10.48;6.90;;;5.70;99.90;;;;;;5068102;28;20225;-67
2021/12/31 03:28:40;;;;;;;9.45;8.07;;;5.70;99.90;;;;;;5069072;28;20209;-63
2021/12/31 03:31:11;;;;;;;8.20;7.40;;;5.80;99.90;;;;;;5069537;28;20224;-64
2021/12/31 03:33:42;;;;;;;11.23;8.27;;;5.80;99.90;;;;;;5069154;28;20219;-65
2021/12/31 03:36:14;;;;;;;10.65;7.20;;;5.90;99.90;;;;;;5065844;28;20631;-65
2021/12/31 03:38:45;;;;;;;10.82;7.00;;;5.90;99.90;;;;;;5066931;28;20220;-66
2021/12/31 03:41:16;;;;;;;6.93;5.28;;;5.80;99.90;;;;;;5074812;28;20232;-65
2021/12/31 03:43:47;;;;;;;4.57;4.10;;;5.90;99.90;;;;;;5069611;28;20223;-67
2021/12/31 03:46:18;;;;;;;5.35;3.67;;;5.80;99.90;;;;;;5073776;28;20221;-69
2021/12/31 03:48:48;;;;;;;3.92;2.50;;;5.80;99.90;;;;;;5065335;28;20308;-63
2021/12/31 03:51:21;;;;;;;3.05;2.15;;;5.70;99.90;;;;;;5066746;28;20212;-67
2021/12/31 03:53:52;;;;;;;1.65;1.52;;;5.60;99.90;;;;;;5062849;28;20217;-66
2021/12/31 03:56:25;;;;;;;1.90;1.73;;;5.40;99.90;;;;;;5070737;28;20212;-68
2021/12/31 03:58:56;;;;;;;1.60;1.10;;;5.30;99.90;;;;;;5067806;28;20213;-63
2021/12/31 04:01:28;;;;;;;1.40;1.25;;;5.20;99.90;;;;;;5067385;28;20208;-63
2021/12/31 04:03:59;;;;;;;2.47;1.02;;;5.00;99.90;;;;;;5064605;28;20293;-66
2021/12/31 04:06:31;;;;;;;0.75;0.75;;;4.90;99.90;;;;;;5063627;28;20258;-66
2021/12/31 04:09:02;;;;;;;1.02;0.85;;;4.90;99.90;;;;;;5061264;28;20225;-68
2021/12/31 04:11:33;;;;;;;0.70;0.68;;;4.70;99.90;;;;;;5063871;28;20552;-64
2021/12/31 04:14:04;;;;;;;1.90;0.82;;;4.80;99.90;;;;;;5066943;28;20583;-67
2021/12/31 04:16:35;;;;;;;1.13;0.73;;;4.70;99.90;;;;;;5068920;28;20675;-67
2021/12/31 04:19:06;;;;;;;10.70;3.20;;;4.90;99.90;;;;;;5066235;28;20283;-67
2021/12/31 04:21:38;;;;;;;3.35;0.82;;;4.80;99.90;;;;;;5065742;28;20217;-67
2021/12/31 04:24:16;;;;;;;2.15;0.90;;;4.90;99.90;;;;;;5075569;28;20240;-66
2021/12/31 04:26:46;;;;;;;1.73;0.88;;;4.80;99.90;;;;;;5065583;28;20224;-66
2021/12/31 04:29:17;;;;;;;1.00;0.90;;;4.80;99.90;;;;;;5075924;28;20271;-65
2021/12/31 04:31:48;;;;;;;1.58;0.80;;;4.70;99.90;;;;;;5076792;28;20223;-65
2021/12/31 04:34:19;;;;;;;3.15;0.60;;;4.60;99.90;;;;;;5064092;28;20216;-70
2021/12/31 04:36:52;;;;;;;0.80;0.80;;;4.50;99.90;;;;;;5077354;28;20209;-66
2021/12/31 04:39:23;;;;;;;1.83;0.63;;;4.40;99.90;;;;;;5081587;28;20219;-65
2021/12/31 04:41:54;;;;;;;0.80;0.45;;;4.50;99.90;;;;;;5068886;28;20536;-65
2021/12/31 04:44:25;;;;;;;2.15;1.27;;;4.50;99.90;;;;;;5061467;28;20296;-67
2021/12/31 04:46:56;;;;;;;1.95;1.30;;;4.40;99.90;;;;;;5067891;28;20221;-66
2021/12/31 04:49:27;;;;;;;1.80;1.25;;;4.40;99.90;;;;;;5063803;28;20213;-66
2021/12/31 04:52:00;;;;;;;1.50;1.40;;;4.40;99.90;;;;;;5064278;28;20223;-70
2021/12/31 04:54:31;;;;;;;1.77;1.50;;;4.40;99.90;;;;;;5066192;28;20746;-65
2021/12/31 04:57:03;;;;;;;1.88;1.55;;;4.50;99.90;;;;;;5063419;28;20213;-67
2021/12/31 04:59:33;;;;;;;11.98;3.80;;;4.50;99.90;;;;;;5068986;28;20667;-70
2021/12/31 05:02:04;;;;;;;1.52;1.23;;;4.60;99.90;;;;;;5056585;28;20209;-68
2021/12/31 05:04:35;;;;;;;0.82;0.60;;;4.60;99.90;;;;;;5068879;28;20220;-69
2021/12/31 05:07:08;;;;;;;4.13;1.02;;;4.60;99.90;;;;;;5066942;28;20702;-66
2021/12/31 05:09:39;;;;;;;0.80;0.80;;;4.60;99.90;;;;;;5061214;28;20285;-68
2021/12/31 05:12:14;;;;;;;1.08;0.95;;;4.60;99.90;;;;;;5072947;28;20217;-73
2021/12/31 05:14:45;;;;;;;2.80;0.88;;;4.60;99.90;;;;;;5069044;28;20213;-69
2021/12/31 05:17:16;;;;;;;1.27;1.00;;;4.60;99.90;;;;;;5070879;28;20209;-68
2021/12/31 05:19:47;;;;;;;2.55;0.90;;;4.70;99.90;;;;;;5071423;28;20224;-68
2021/12/31 05:22:19;;;;;;;1.45;0.95;;;4.70;99.90;;;;;;5068376;28;20205;-72
2021/12/31 05:24:50;;;;;;;2.40;0.90;;;4.70;99.90;;;;;;5067939;28;20233;-69
2021/12/31 05:27:21;;;;;;;4.55;1.30;;;4.60;99.90;;;;;;5068095;28;20236;-69
2021/12/31 05:29:52;;;;;;;2.28;0.95;;;4.60;99.90;;;;;;5069536;28;20215;-70
2021/12/31 05:32:22;;;;;;;2.22;0.80;;;4.50;99.90;;;;;;5076953;28;20236;-72
2021/12/31 05:34:53;;;;;;;3.00;1.15;;;4.50;99.90;;;;;;5068372;28;20212;-73
2021/12/31 05:37:26;;;;;;;1.95;0.90;;;4.50;99.90;;;;;;5058180;28;20201;-69
2021/12/31 05:39:56;;;;;;;2.45;0.90;;;4.50;99.90;;;;;;5080642;28;20296;-67
2021/12/31 05:42:27;;;;;;;1.45;0.70;;;4.50;99.90;;;;;;5066193;28;20220;-68
2021/12/31 05:44:58;;;;;;;2.97;0.80;;;4.50;99.90;;;;;;5069696;28;20212;-67
2021/12/31 05:47:29;;;;;;;1.80;1.33;;;4.40;99.90;;;;;;5074872;28;20254;-68
2021/12/31 05:50:00;;;;;;;3.40;0.90;;;4.50;99.90;;;;;;5068243;28;20220;-67
2021/12/31 05:52:51;;;;;;;3.15;0.93;;;4.40;99.90;;;;;;5063541;28;20331;-69
2021/12/31 05:55:22;;;;;;;1.27;0.90;;;4.50;99.90;;;;;;5069200;28;20209;-70
2021/12/31 05:57:52;;;;;;;3.70;1.30;;;4.40;99.90;;;;;;5063051;28;20566;-70
2021/12/31 06:00:24;;;;;;;1.92;1.05;;;4.50;99.90;;;;;;5079988;28;20224;-68
2021/12/31 06:02:54;;;;;;;1.75;1.10;;;4.40;99.90;;;;;;5068930;28;20701;-68
2021/12/31 06:05:27;;;;;;;2.55;1.27;;;4.40;99.90;;;;;;5072234;28;20245;-70
2021/12/31 06:07:59;;;;;;;1.73;0.88;;;4.30;99.90;;;;;;5069873;28;20259;-67
2021/12/31 06:10:31;;;;;;;3.03;1.40;;;4.30;99.90;;;;;;5069254;28;20525;-73
2021/12/31 06:13:02;;;;;;;1.00;1.00;;;4.30;99.90;;;;;;5065145;28;20364;-70
2021/12/31 06:15:33;;;;;;;2.40;1.08;;;4.20;99.90;;;;;;5076647;28;20931;-69
2021/12/31 06:18:04;;;;;;;4.10;1.25;;;4.30;99.90;;;;;;5070876;28;20694;-68
2021/12/31 06:20:35;;;;;;;1.70;1.00;;;4.20;99.90;;;;;;5065992;28;20686;-68
2021/12/31 06:23:10;;;;;;;1.15;1.05;;;4.30;99.90;;;;;;5076612;28;20274;-69
2021/12/31 06:25:42;;;;;;;1.15;1.02;;;4.30;99.90;;;;;;5065520;28;20220;-66
2021/12/31 06:28:13;;;;;;;1.30;0.95;;;4.30;99.90;;;;;;5068969;28;20225;-69
2021/12/31 06:30:44;;;;;;;1.27;1.00;;;4.40;99.90;;;;;;5071671;28;20220;-67
2021/12/31 06:33:17;;;;;;;1.35;1.00;;;4.40;99.90;;;;;;5062636;28;20549;-67
2021/12/31 06:35:48;;;;;;;1.30;1.20;;;4.50;99.90;;;;;;5071644;28;20304;-66
2021/12/31 06:38:20;;;;;;;2.92;1.27;;;4.50;99.90;;;;;;5071955;28;20286;-70
2021/12/31 06:40:51;;;;;;;1.10;1.10;;;4.50;99.90;;;;;;5070377;28;20209;-66
2021/12/31 06:43:22;;;;;;;0.75;0.75;;;4.40;99.90;;;;;;5070344;28;20608;-70
2021/12/31 06:45:53;;;;;;;1.05;1.05;;;4.40;99.90;;;;;;5069038;28;20539;-67
2021/12/31 06:48:25;;;;;;;2.78;0.68;;;4.30;99.90;;;;;;5065648;28;20237;-67
2021/12/31 06:50:55;;;;;;;1.67;1.10;;;4.30;99.90;;;;;;5062243;28;21225;-69
2021/12/31 06:53:28;;;;;;;3.47;1.05;;;4.20;99.90;;;;;;5070258;28;20213;-66
2021/12/31 06:55:59;;;;;;;2.15;0.80;;;4.30;99.90;;;;;;5067128;28;20292;-66
2021/12/31 06:58:29;;;;;;;1.20;0.90;;;4.20;99.90;;;;;;5067068;28;20213;-68
2021/12/31 07:01:00;;;;;;;1.23;0.80;;;4.20;99.90;;;;;;5068781;28;20308;-68
2021/12/31 07:03:31;;;;;;;1.17;0.82;;;4.00;99.90;;;;;;5069288;28;20671;-68
2021/12/31 07:06:02;;;;;;;2.63;1.15;;;3.90;99.90;;;;;;5068466;28;20213;-68
2021/12/31 07:08:35;;;;;;;1.08;0.80;;;3.70;99.90;;;;;;5068340;28;20684;-67
2021/12/31 07:11:05;;;;;;;3.15;0.93;;;3.70;99.90;;;;;;5068538;28;20213;-69
2021/12/31 07:13:37;;;;;;;1.70;0.95;;;3.60;99.90;;;;;;5069979;28;20312;-72
2021/12/31 07:16:08;;;;;;;0.50;0.50;;;3.50;99.90;;;;;;5067378;28;20220;-66
2021/12/31 07:18:39;;;;;;;0.90;0.90;;;3.40;99.90;;;;;;5067417;28;20232;-66
2021/12/31 07:21:10;;;;;;;2.03;0.90;;;3.30;99.90;;;;;;5068509;28;20616;-66
2021/12/31 07:23:45;;;;;;;1.77;1.02;;;3.30;99.90;;;;;;5066397;28;20236;-66
2021/12/31 07:26:16;;;;;;;2.20;0.50;;;3.20;99.90;;;;;;5068345;28;20522;-69
2021/12/31 07:28:47;;;;;;;2.80;1.00;;;3.20;99.90;;;;;;5066393;28;20568;-67
2021/12/31 07:31:18;;;;;;;1.55;1.45;;;3.00;99.90;;;;;;5068061;28;20686;-71
2021/12/31 07:33:49;;;;;;;2.33;1.70;;;3.00;99.90;;;;;;5068117;28;20224;-67
2021/12/31 07:36:19;;;;;;;2.08;1.35;;;3.00;99.90;;;;;;5066437;28;20209;-66
2021/12/31 07:38:59;;;;;;;2.83;1.85;;;3.00;99.90;;;;;;5069043;28;20224;-68
2021/12/31 07:41:30;;;;;;;2.95;1.50;;;3.00;99.90;;;;;;5067908;28;20221;-69
2021/12/31 07:44:00;;;;;;;4.43;1.70;;;2.90;99.90;;;;;;5069550;28;20216;-70
2021/12/31 07:46:31;;;;;;;2.20;1.60;;;2.90;99.90;;;;;;5066206;28;20232;-68
2021/12/31 07:49:02;;;;;;;3.60;1.85;;;2.80;99.90;;;;;;5066619;28;20335;-67
2021/12/31 07:51:33;;;;;;;2.83;2.05;;;2.70;99.90;;;;;;5064400;28;20219;-71
2021/12/31 07:54:05;;;;;;;2.78;2.10;;;2.80;99.90;;;;;;5066039;28;20304;-67
2021/12/31 07:56:36;;;;;;;3.15;2.42;;;2.90;99.90;;;;;;5068012;28;20271;-66
2021/12/31 07:59:07;;;;;;;3.95;2.22;;;3.00;99.90;;;;;;5071539;28;20611;-65
2021/12/31 08:01:38;;;;;;;2.88;1.95;;;3.10;99.90;;;;;;5070117;28;20557;-67
2021/12/31 08:04:09;;;;;;;2.13;2.03;;;3.10;99.90;;;;;;5066659;28;20587;-68
2021/12/31 08:06:39;;;;;;;2.50;2.28;;;3.10;99.90;;;;;;5069494;28;20228;-66
2021/12/31 08:09:14;;;;;;;3.47;1.90;;;3.20;99.90;;;;;;5067356;28;20221;-67
2021/12/31 08:11:45;;;;;;;2.83;2.58;;;3.30;99.90;;;;;;5069116;28;20655;-67
2021/12/31 08:14:16;;;;;;;2.55;2.35;;;3.30;99.90;;;;;;5067237;28;20223;-68
2021/12/31 08:16:48;;;;;;;4.97;2.40;;;3.40;99.90;;;;;;5068023;28;20291;-67
2021/12/31 08:19:19;;;;;;;3.88;2.92;;;3.40;99.90;;;;;;5066434;28;20205;-66
2021/12/31 08:21:50;;;;;;;3.47;2.65;;;3.50;99.90;;;;;;5067277;28;20209;-67
2021/12/31 08:24:22;;;;;;;3.72;3.13;;;3.50;99.90;;;;;;5068786;28;20240;-66
2021/12/31 08:26:53;;;;;;;3.50;3.20;;;3.50;99.90;;;;;;5065398;28;20255;-67
2021/12/31 08:29:24;;;;;;;5.20;3.30;;;3.50;99.90;;;;;;5065409;28;20224;-67
2021/12/31 08:31:55;;;;;;;2.78;2.50;;;3.60;99.90;;;;;;5058955;28;20224;-67
2021/12/31 08:34:26;;;;;;;3.00;2.80;;;3.70;99.90;;;;;;5065550;28;20221;-68
2021/12/31 08:36:57;;;;;;;4.50;3.20;;;3.70;99.90;;;;;;5067485;28;20586;-68
2021/12/31 08:39:29;;;;;;;3.65;3.03;;;3.60;99.90;;;;;;5068559;28;20205;-66
2021/12/31 08:42:02;;;;;;;3.60;2.85;;;3.50;99.90;;;;;;5052445;28;20334;-66
2021/12/31 08:44:33;;;;;;;3.20;2.83;;;3.50;99.90;;;;;;5066707;28;20221;-67
2021/12/31 08:47:04;;;;;;;6.03;3.97;;;3.50;99.90;;;;;;5070978;28;20239;-66
2021/12/31 08:49:35;;;;;;;7.15;2.00;;;3.50;99.90;;;;;;5063176;28;20322;-66
2021/12/31 08:52:06;;;;;;;3.40;3.10;;;3.60;99.90;;;;;;5075041;28;20506;-66
2021/12/31 08:54:38;;;;;;;3.50;2.85;;;3.70;99.90;;;;;;5081720;28;20213;-66
2021/12/31 08:57:09;;;;;;;2.72;2.38;;;3.70;99.90;;;;;;5069704;28;20220;-66
2021/12/31 08:59:40;;;;;;;4.55;3.10;;;3.70;99.90;;;;;;5070515;28;20220;-66
2021/12/31 09:02:11;;;;;;;2.53;2.05;;;3.70;99.90;;;;;;5071120;28;20228;-66
2021/12/31 09:04:42;;;;;;;2.47;2.22;;;3.70;99.90;;;;;;5069264;28;20209;-66
2021/12/31 09:07:13;;;;;;;3.38;2.00;;;3.70;99.90;;;;;;5071131;28;20239;-65
2021/12/31 09:09:46;;;;;;;2.97;2.35;;;3.70;99.90;;;;;;5070285;28;20225;-66
2021/12/31 09:12:16;;;;;;;6.10;2.45;;;3.70;99.90;;;;;;5071032;28;20224;-66
2021/12/31 09:14:47;;;;;;;3.38;2.22;;;3.70;99.90;;;;;;5067094;28;20213;-66
2021/12/31 09:17:18;;;;;;;3.65;2.47;;;3.70;99.90;;;;;;5072408;28;20209;-66
2021/12/31 09:19:49;;;;;;;3.00;2.70;;;3.80;99.90;;;;;;5069394;28;20240;-66
2021/12/31 09:22:20;;;;;;;4.45;2.30;;;3.80;99.90;;;;;;5066049;28;20235;-67
2021/12/31 09:24:52;;;;;;;2.00;1.90;;;3.90;99.90;;;;;;5068086;28;20241;-66
2021/12/31 09:27:23;;;;;;;4.00;2.65;;;3.90;99.90;;;;;;5068754;28;20221;-67
2021/12/31 09:29:54;;;;;;;3.17;2.50;;;3.90;99.90;;;;;;5071636;28;20236;-66
2021/12/31 09:32:25;;;;;;;4.13;2.55;;;3.90;99.90;;;;;;5057573;28;20569;-67
2021/12/31 09:34:56;;;;;;;3.33;3.03;;;3.90;99.90;;;;;;5070629;28;20209;-67
2021/12/31 09:37:26;;;;;;;4.40;2.72;;;3.90;99.90;;;;;;5070272;28;20299;-64
2021/12/31 09:39:59;;;;;;;3.60;2.53;;;3.90;99.90;;;;;;5071388;28;20543;-64
2021/12/31 09:42:29;;;;;;;6.47;3.10;;;3.90;99.90;;;;;;5070237;28;20237;-63
2021/12/31 09:45:00;;;;;;;2.88;2.45;;;3.80;99.90;;;;;;5054928;28;20959;-64
2021/12/31 09:47:31;;;;;;;4.20;3.05;;;3.80;99.90;;;;;;5071866;28;20217;-64
2021/12/31 09:50:02;;;;;;;5.03;2.95;;;3.80;99.90;;;;;;5061034;28;20699;-64
2021/12/31 09:52:34;;;;;;;4.88;2.95;;;3.80;99.90;;;;;;5069582;28;20693;-64
2021/12/31 09:55:12;;;;;;;4.20;3.17;;;3.70;99.90;;;;;;5069652;28;20684;-64
2021/12/31 09:57:43;;;;;;;5.50;2.90;;;3.50;99.90;;;;;;5069337;28;20248;-64
2021/12/31 10:00:15;;;;;;;4.70;2.60;;;3.60;99.90;;;;;;5069493;28;20228;-64
2021/12/31 10:02:47;;;;;;;3.58;3.17;;;3.60;99.90;;;;;;5068053;28;20224;-65
2021/12/31 10:05:17;;;;;;;2.95;2.63;;;3.60;99.90;;;;;;5070395;28;20213;-64
2021/12/31 10:07:50;;;;;;;2.50;2.30;;;3.60;99.90;;;;;;5065779;28;20209;-64
2021/12/31 10:10:24;;;;;;;6.60;3.42;;;3.60;99.90;;;;;;5069490;28;20598;-64
2021/12/31 10:12:57;;;;;;;4.15;2.67;;;3.60;99.90;;;;;;5063218;28;20323;-65
2021/12/31 10:15:28;;;;;;;3.60;2.88;;;3.70;99.90;;;;;;5067557;28;20213;-65
2021/12/31 10:17:59;;;;;;;6.22;2.85;;;3.70;99.90;;;;;;5057666;28;20213;-64
2021/12/31 10:20:30;;;;;;;3.80;2.85;;;3.70;99.90;;;;;;5066780;28;20216;-64
2021/12/31 10:23:15;;;;;;;3.05;2.75;;;3.70;99.90;;;;;;5071145;28;20571;-64
2021/12/31 10:25:49;;;;;;;3.90;2.15;;;3.70;99.90;;;;;;5067767;28;20221;-64
2021/12/31 10:28:20;;;;;;;1.83;1.00;;;3.70;99.90;;;;;;5069209;28;20300;-65
2021/12/31 10:30:51;;;;;;;1.65;0.70;;;3.70;99.90;;;;;;5068399;28;20232;-64
2021/12/31 10:33:44;;;;;;;1.60;1.05;;;3.70;99.90;;;;;;5069789;28;20667;-64
2021/12/31 10:36:33;;;;;;;0.85;0.75;;;3.50;99.90;;;;;;5069269;28;20224;-64
2021/12/31 10:39:17;;;;;;;0.90;0.40;;;3.40;99.90;;;;;;5061815;28;20236;-64
2021/12/31 10:41:52;;;;;;;1.17;0.40;;;3.40;99.90;;;;;;5069247;28;20220;-65
2021/12/31 10:44:23;;;;;;;0.60;0.40;;;3.30;99.90;;;;;;5066946;28;20224;-65
2021/12/31 10:47:10;;;;;;;2.08;0.50;;;3.40;99.90;;;;;;5069163;28;20318;-65
2021/12/31 10:50:12;;;;;;;0.98;0.50;;;3.40;99.90;;;;;;5066980;28;20231;-65
2021/12/31 10:52:52;;;;;;;2.35;0.60;;;3.50;99.90;;;;;;5059980;28;20651;-64
2021/12/31 10:55:27;;;;;;;1.25;0.30;;;3.50;99.90;;;;;;5068539;28;20567;-64
2021/12/31 10:58:01;;;;;;;1.30;0.50;;;3.50;99.90;;;;;;5069071;28;20224;-64
2021/12/31 11:00:34;;;;;;;2.28;0.60;;;3.40;99.90;;;;;;5070232;28;20213;-63
2021/12/31 11:03:06;;;;;;;1.10;0.50;;;3.40;99.90;;;;;;5054687;28;20346;-63
2021/12/31 11:05:37;;;;;;;1.60;0.60;;;3.40;99.90;;;;;;5067868;28;20216;-64
2021/12/31 11:08:12;;;;;;;0.85;0.35;;;3.40;99.90;;;;;;5068203;28;20261;-64
2021/12/31 11:10:43;;;;;;;1.73;0.40;;;3.40;99.90;;;;;;5068399;28;20243;-64
2021/12/31 11:13:17;;;;;;;1.25;0.40;;;3.50;99.90;;;;;;5068384;28;20217;-64
2021/12/31 11:15:50;;;;;;;0.57;0.28;;;3.40;99.90;;;;;;5059107;28;20558;-64
2021/12/31 11:18:23;;;;;;;1.38;0.43;;;3.60;99.90;;;;;;5069155;28;20578;-65
2021/12/31 11:20:59;;;;;;;0.30;0.30;;;3.60;99.90;;;;;;5068457;28;20320;-64
2021/12/31 11:23:31;;;;;;;0.50;0.30;;;3.60;99.90;;;;;;5058013;28;20711;-64
2021/12/31 11:26:04;;;;;;;0.85;0.40;;;3.60;99.90;;;;;;5067834;28;20662;-64
2021/12/31 11:28:37;;;;;;;0.77;0.55;;;3.60;99.90;;;;;;5067920;28;20594;-65
2021/12/31 11:31:29;;;;;;;3.33;0.60;;;3.60;99.90;;;;;;5064668;28;20549;-65
2021/12/31 11:34:16;;;;;;;0.40;0.40;;;3.50;99.90;;;;;;5065493;28;20591;-64
2021/12/31 11:36:54;;;;;;;1.60;0.60;;;3.50;99.90;;;;;;5068462;28;20213;-64
2021/12/31 11:39:28;;;;;;;0.52;0.40;;;3.40;99.90;;;;;;5065075;28;20539;-64
2021/12/31 11:42:02;;;;;;;0.80;0.75;;;3.50;99.90;;;;;;5068535;28;20216;-64
2021/12/31 11:44:36;;;;;;;3.50;0.90;;;3.50;99.90;;;;;;5067623;28;20607;-64
2021/12/31 11:47:28;;;;;;;0.98;0.50;;;3.60;99.90;;;;;;5069908;28;20213;-64
2021/12/31 11:50:29;;;;;;;1.75;1.15;;;3.50;99.90;;;;;;5058790;28;20225;-64
2021/12/31 11:53:04;;;;;;;1.10;0.50;;;3.40;99.90;;;;;;5061628;28;20223;-64
2021/12/31 11:55:45;;;;;;;0.38;0.30;;;3.20;99.90;;;;;;5064811;28;20220;-64
2021/12/31 11:58:37;;;;;;;4.60;0.73;;;3.30;99.90;;;;;;5067361;28;20235;-64
2021/12/31 12:01:43;;;;;;;0.50;0.40;;;3.00;99.90;;;;;;5067611;28;20287;-65
2021/12/31 12:04:23;;;;;;;2.30;0.85;;;2.90;99.90;;;;;;5068095;28;20213;-64
2021/12/31 12:06:56;;;;;;;0.85;0.60;;;2.90;99.90;;;;;;5067667;28;20256;-65
2021/12/31 12:10:04;;;;;;;2.60;0.55;;;2.90;99.90;;;;;;5067119;28;20221;-65
2021/12/31 12:12:36;;;;;;;0.80;0.70;;;2.90;99.90;;;;;;5067232;28;20209;-65
2021/12/31 12:15:26;;;;;;;1.38;0.60;;;2.80;99.90;;;;;;5067285;28;20213;-65
2021/12/31 12:17:59;;;;;;;0.80;0.40;;;2.70;99.90;;;;;;5068755;28;20558;-65
2021/12/31 12:20:45;;;;;;;2.92;0.50;;;2.70;99.90;;;;;;5066109;28;20205;-65
2021/12/31 12:23:21;;;;;;;3.08;1.02;;;2.80;99.90;;;;;;5068576;28;20549;-65
2021/12/31 12:25:52;;;;;;;0.85;0.55;;;2.80;99.90;;;;;;5065464;28;20217;-65
2021/12/31 12:28:23;;;;;;;0.75;0.70;;;2.80;99.90;;;;;;5067206;28;20209;-65
2021/12/31 12:31:04;;;;;;;3.97;0.90;;;2.70;99.90;;;;;;5065550;28;20237;-65
2021/12/31 12:33:37;;;;;;;2.25;0.68;;;2.70;99.90;;;;;;5066070;28;20339;-65
2021/12/31 12:36:09;;;;;;;3.20;0.60;;;2.70;99.90;;;;;;5067409;28;20228;-65
2021/12/31 12:38:40;;;;;;;1.50;1.15;;;2.70;99.90;;;;;;5068719;28;20224;-65
2021/12/31 12:41:11;;;;;;;6.28;0.95;;;2.70;99.90;;;;;;5067543;28;20216;-66
2021/12/31 12:43:49;;;;;;;0.77;0.75;;;2.70;99.90;;;;;;5068477;28;20240;-66
2021/12/31 12:46:21;;;;;;;1.60;0.60;;;2.60;99.90;;;;;;5062199;28;20217;-66
2021/12/31 12:48:57;;;;;;;1.58;0.88;;;2.50;99.90;;;;;;5067453;28;20639;-66
2021/12/31 12:51:29;;;;;;;1.13;0.65;;;2.50;99.90;;;;;;5065244;28;20224;-66
2021/12/31 12:54:02;;;;;;;1.95;0.80;;;2.50;99.90;;;;;;5068490;28;20590;-66
2021/12/31 12:56:33;;;;;;;2.08;0.93;;;2.50;99.90;;;;;;5065995;28;20220;-66
2021/12/31 12:59:05;;;;;;;2.65;0.88;;;2.40;99.90;;;;;;5068614;28;20251;-66
2021/12/31 13:01:37;;;;;;;1.10;0.60;;;2.50;99.90;;;;;;5066899;28;20311;-66
2021/12/31 13:04:11;;;;;;;1.35;1.25;;;2.70;99.90;;;;;;5067845;28;20282;-66
2021/12/31 13:06:44;;;;;;;1.02;0.90;;;2.70;99.90;;;;;;5064961;28;20274;-65
2021/12/31 13:09:18;;;;;;;1.73;1.63;;;2.70;99.90;;;;;;5068228;28;20213;-66
2021/12/31 13:11:59;;;;;;;3.53;1.15;;;2.70;99.90;;;;;;5067985;28;20260;-66
2021/12/31 13:14:32;;;;;;;3.92;1.42;;;2.70;99.90;;;;;;5066396;28;20667;-66
2021/12/31 13:17:03;;;;;;;1.63;0.98;;;2.60;99.90;;;;;;5066835;28;20217;-66
2021/12/31 13:19:38;;;;;;;0.77;0.77;;;2.70;99.90;;;;;;5063788;28;20209;-66
2021/12/31 13:22:10;;;;;;;1.08;0.70;;;2.80;99.90;;;;;;5065433;28;20216;-67
2021/12/31 13:24:41;;;;;;;1.55;0.70;;;2.80;99.90;;;;;;5067672;28;20237;-65
2021/12/31 13:27:14;;;;;;;1.20;1.10;;;2.70;99.90;;;;;;5059917;28;20240;-66
2021/12/31 13:29:45;;;;;;;1.67;1.20;;;2.70;99.90;;;;;;5064650;28;20213;-66
2021/12/31 13:32:19;;;;;;;2.80;1.70;;;2.70;99.90;;;;;;5056581;28;20236;-66
2021/12/31 13:34:53;;;;;;;3.22;1.80;;;2.80;99.90;;;;;;5068027;28;20289;-66